Weather at Staro Zhelezare Airstrip [CLOSED]

Public forecast

Using degrees Celsius for public forecast. Weather courtesy of forecast.io.

Closest aviation weather report (METAR) to Staro Zhelezare Airstrip

Closest report is Graf Ignatievo Air Base, 9.7 nm (18.0 km) SSE.

2024/04/16 16:00 (retrieved 11 minutes ago)

LBPG 161600Z 10008KT 9999 BKN100 BKN200 26/09 Q1003

Closest aviation forecast (TAF) to Staro Zhelezare Airstrip

Closest forecast is Plovdiv International Airport, 24.3 nm (45.0 km) SSE.

2024/04/16 12:18 (retrieved 4 hours ago)

TAF LBPD 161100Z 1612/1712 14010KT 9999 SCT070 BECMG 1615/1617 20010KT BECMG 1620/1622 VRB04KT PROB30 TEMPO 1703/1706 5000 RA SCT030 BKN050 BECMG 1709/1710 20010KT PROB40 TEMPO 1710/1712 5000 TSRA FEW030CB BKN040